createdAt,value
2022-12-10T00:01:11.639Z,53.60
2022-12-10T00:03:39.886Z,53.60
2022-12-10T00:06:10.154Z,53.60
2022-12-10T00:08:39.866Z,53.60
2022-12-10T00:11:09.767Z,53.60
2022-12-10T00:13:39.008Z,53.60
2022-12-10T00:16:10.117Z,53.60
2022-12-10T00:18:38.715Z,53.60
2022-12-10T00:21:08.546Z,53.60
2022-12-10T00:23:37.311Z,53.60
2022-12-10T00:26:08.283Z,53.60
2022-12-10T00:28:36.586Z,53.60
2022-12-10T00:31:06.134Z,53.60
2022-12-10T00:33:34.188Z,53.60
2022-12-10T00:36:06.526Z,53.60
2022-12-10T00:38:34.798Z,53.60
2022-12-10T00:41:02.774Z,53.60
2022-12-10T00:43:32.043Z,53.60
2022-12-10T00:45:59.879Z,53.60
2022-12-10T00:48:27.898Z,53.60
2022-12-10T00:51:00.045Z,53.60
2022-12-10T00:53:28.867Z,53.60
2022-12-10T00:55:57.508Z,53.60
2022-12-10T00:58:25.454Z,53.60
2022-12-10T01:00:54.700Z,53.60
2022-12-10T01:03:22.559Z,53.60
2022-12-10T01:05:50.416Z,53.60
2022-12-10T01:08:18.766Z,53.60
2022-12-10T01:10:54.096Z,53.60
2022-12-10T01:13:21.949Z,53.60
2022-12-10T01:15:49.798Z,53.60
2022-12-10T01:18:18.970Z,53.60
2022-12-10T01:20:46.810Z,53.60
2022-12-10T01:23:14.629Z,53.60
2022-12-10T01:25:42.474Z,53.60
2022-12-10T01:28:10.313Z,53.60
2022-12-10T01:30:38.159Z,53.60
2022-12-10T01:33:06.003Z,53.60
2022-12-10T01:35:38.085Z,53.60
2022-12-10T01:38:05.927Z,53.60
2022-12-10T01:40:38.588Z,53.60
2022-12-10T01:43:06.725Z,53.60
2022-12-10T01:45:35.106Z,53.60
2022-12-10T01:48:07.829Z,53.60
2022-12-10T01:50:37.424Z,53.60
2022-12-10T01:53:05.330Z,53.60
2022-12-10T01:55:49.085Z,53.60
2022-12-10T01:58:18.651Z,53.60
2022-12-10T02:00:57.680Z,53.60
2022-12-10T02:03:35.795Z,53.60
2022-12-10T02:06:15.752Z,53.60
2022-12-10T02:08:53.400Z,53.60
2022-12-10T02:11:28.458Z,53.60
2022-12-10T02:14:01.463Z,53.60
2022-12-10T02:16:35.409Z,53.60
2022-12-10T02:19:12.333Z,53.60
2022-12-10T02:21:46.077Z,53.60
2022-12-10T02:24:25.356Z,53.60
2022-12-10T02:27:02.310Z,53.60
2022-12-10T02:29:33.253Z,53.60
2022-12-10T07:33:20.144Z,53.50
2022-12-10T07:35:49.361Z,53.50
2022-12-10T07:38:17.342Z,53.50
2022-12-10T07:40:45.228Z,53.50
2022-12-10T07:43:13.095Z,53.50
2022-12-10T07:45:40.943Z,53.50
2022-12-10T07:48:08.874Z,53.50
2022-12-10T07:50:38.178Z,53.50
2022-12-10T07:53:06.050Z,53.40
2022-12-10T07:55:33.903Z,53.50
2022-12-10T07:58:01.760Z,53.40
2022-12-10T08:00:29.586Z,53.50
2022-12-10T08:02:58.053Z,53.40
2022-12-10T08:05:25.945Z,53.50
2022-12-10T08:08:01.151Z,53.50
2022-12-10T08:10:31.037Z,53.50
2022-12-10T08:12:59.011Z,53.40
2022-12-10T08:15:29.043Z,53.50
2022-12-10T08:17:57.226Z,53.50
2022-12-10T08:20:26.041Z,53.40
2022-12-10T08:22:55.251Z,53.40
2022-12-10T08:25:23.095Z,53.40
2022-12-10T08:27:50.931Z,53.50
2022-12-10T08:30:18.819Z,53.50
2022-12-10T08:32:46.684Z,53.40
2022-12-10T08:35:14.557Z,53.50
2022-12-10T08:37:43.327Z,53.40
2022-12-10T08:40:13.746Z,53.40
2022-12-10T08:42:41.577Z,53.40
2022-12-10T08:45:10.356Z,53.40
2022-12-10T08:47:38.186Z,53.40
2022-12-10T08:50:06.812Z,53.40
2022-12-10T08:52:34.872Z,53.40
2022-12-10T08:55:02.785Z,53.40
2022-12-10T08:57:31.956Z,53.40
2022-12-10T08:59:59.795Z,53.40
2022-12-10T09:02:27.712Z,53.40
2022-12-10T09:04:55.648Z,53.40
2022-12-10T09:07:23.663Z,53.50
2022-12-10T09:09:51.522Z,53.40
2022-12-10T09:12:19.382Z,53.40
2022-12-10T09:14:48.659Z,53.40
2022-12-10T09:17:16.545Z,53.40
2022-12-10T09:19:44.384Z,53.40
2022-12-10T09:22:12.296Z,53.40
2022-12-10T09:24:40.137Z,53.40
2022-12-10T09:27:08.028Z,53.40
2022-12-10T09:29:35.875Z,53.40
2022-12-10T09:32:05.134Z,53.40
2022-12-10T09:34:32.987Z,53.40
2022-12-10T09:37:00.856Z,53.40
2022-12-10T09:39:28.720Z,53.40
2022-12-10T09:42:16.413Z,53.40
2022-12-10T09:44:55.278Z,53.60
2022-12-10T09:47:33.534Z,53.40
2022-12-10T09:50:13.629Z,53.40
2022-12-10T09:52:45.264Z,53.40
2022-12-10T09:55:15.750Z,54.00
2022-12-10T09:57:46.093Z,53.40
2022-12-10T10:00:23.085Z,53.40
2022-12-10T10:02:53.038Z,53.40
2022-12-10T10:05:24.892Z,53.40
2022-12-10T10:07:55.830Z,53.40
2022-12-10T10:10:28.009Z,53.40
2022-12-10T10:13:00.843Z,53.40
2022-12-10T10:15:33.129Z,53.40
2022-12-10T10:18:10.172Z,53.40
2022-12-10T10:20:38.214Z,54.00
2022-12-10T10:23:06.148Z,53.40
2022-12-10T10:25:34.022Z,53.40
2022-12-10T10:28:01.878Z,53.30
2022-12-10T10:30:30.772Z,53.40
2022-12-10T10:33:03.195Z,53.30
2022-12-10T10:35:35.054Z,53.30
2022-12-10T10:38:06.986Z,53.30
2022-12-10T10:40:41.766Z,53.40
2022-12-10T10:43:18.739Z,53.30
2022-12-10T10:45:51.367Z,53.30
2022-12-10T10:48:21.711Z,53.30
2022-12-10T10:50:52.926Z,53.30
2022-12-10T10:53:30.280Z,53.40
2022-12-10T10:56:01.576Z,53.40
2022-12-10T10:58:29.626Z,53.40
2022-12-10T11:01:02.731Z,53.40
2022-12-10T11:03:32.515Z,53.30
2022-12-10T11:06:02.847Z,53.30
2022-12-10T11:08:33.274Z,53.30
2022-12-10T11:11:05.641Z,53.30
2022-12-10T11:13:36.386Z,53.30
2022-12-10T11:16:13.562Z,53.30
2022-12-10T11:18:43.826Z,53.30
2022-12-10T11:21:22.688Z,53.30
2022-12-10T11:23:54.413Z,53.30
2022-12-10T11:26:44.613Z,53.30
2022-12-10T11:29:28.231Z,53.30
2022-12-10T11:32:15.275Z,53.30
2022-12-10T11:34:54.144Z,53.30
2022-12-10T11:37:34.865Z,53.30
2022-12-10T11:40:16.424Z,53.30
2022-12-10T11:42:52.908Z,53.30
2022-12-10T11:45:26.769Z,53.30
2022-12-10T11:48:12.112Z,53.30
2022-12-10T11:50:44.746Z,53.30
2022-12-10T11:53:46.733Z,53.90
2022-12-10T11:58:59.009Z,53.30
2022-12-10T12:01:38.544Z,53.30
2022-12-10T12:04:21.698Z,53.30
2022-12-10T12:07:05.015Z,53.30
2022-12-10T12:09:43.766Z,53.30
2022-12-10T12:12:23.350Z,53.30
2022-12-10T12:14:56.426Z,53.30
2022-12-10T12:19:58.184Z,53.30
2022-12-10T12:22:28.230Z,53.30
2022-12-10T12:25:01.846Z,53.30
2022-12-10T12:27:35.036Z,53.30
2022-12-10T12:30:15.278Z,53.30
2022-12-10T12:32:51.414Z,53.30
2022-12-10T12:35:23.198Z,53.30
2022-12-10T12:37:56.150Z,53.30
2022-12-10T12:40:31.367Z,53.30
2022-12-10T12:43:02.527Z,53.30
2022-12-10T12:45:42.115Z,53.30
2022-12-10T12:48:21.818Z,53.20
2022-12-10T12:50:52.999Z,53.20
2022-12-10T12:53:23.935Z,53.20
2022-12-10T12:56:00.241Z,53.20
2022-12-10T12:58:36.482Z,53.20
2022-12-10T13:01:22.320Z,53.20
2022-12-10T13:03:51.476Z,53.20
2022-12-10T13:06:23.668Z,53.20
2022-12-10T13:08:55.047Z,53.20
2022-12-10T13:11:38.026Z,53.20
2022-12-10T13:14:19.178Z,53.20
2022-12-10T13:17:01.831Z,53.20
2022-12-10T13:19:33.600Z,53.30
2022-12-10T13:22:08.093Z,53.20
2022-12-10T13:24:48.789Z,53.20
2022-12-10T13:27:32.615Z,53.20
2022-12-10T13:30:02.931Z,53.20
2022-12-10T13:32:46.931Z,53.20
2022-12-10T13:35:28.176Z,53.20
2022-12-10T13:37:59.026Z,53.20
2022-12-10T13:40:51.934Z,53.20
2022-12-10T13:43:47.462Z,53.20
2022-12-10T13:46:27.893Z,53.20
2022-12-10T13:48:56.826Z,53.20
2022-12-10T13:51:54.907Z,53.20
2022-12-10T13:54:54.284Z,53.20
2022-12-10T13:57:39.609Z,53.20
2022-12-10T14:00:17.635Z,53.20
2022-12-10T14:03:04.205Z,53.20
2022-12-10T14:05:49.218Z,53.30
2022-12-10T14:08:20.558Z,53.20
2022-12-10T14:10:49.865Z,53.20
2022-12-10T14:13:21.628Z,53.30
2022-12-10T14:15:56.306Z,53.20
2022-12-10T14:18:25.141Z,53.20
2022-12-10T14:20:55.449Z,53.20
2022-12-10T14:23:42.633Z,53.20
2022-12-10T14:26:16.572Z,53.20
2022-12-10T14:28:46.889Z,53.20
2022-12-10T14:31:20.064Z,53.20
2022-12-10T14:33:50.463Z,53.20
2022-12-10T14:36:28.214Z,53.20
2022-12-10T14:38:56.942Z,53.20
2022-12-10T14:41:26.208Z,53.20
2022-12-10T14:43:54.900Z,53.20
2022-12-10T14:46:27.501Z,53.20
2022-12-10T14:48:56.550Z,53.20
2022-12-10T14:51:26.220Z,53.20
2022-12-10T14:53:55.896Z,53.20
2022-12-10T14:56:30.264Z,53.20
2022-12-10T14:59:04.406Z,53.20
2022-12-10T15:01:37.138Z,53.20
2022-12-10T15:04:08.106Z,53.20
2022-12-10T15:06:38.314Z,53.20
2022-12-10T15:09:07.930Z,53.20
2022-12-10T15:11:35.843Z,53.20
2022-12-10T15:14:05.417Z,53.20
2022-12-10T15:16:41.825Z,53.20
2022-12-10T15:19:17.351Z,53.20
2022-12-10T15:21:47.136Z,53.20
2022-12-10T15:24:22.092Z,53.20
2022-12-10T15:26:52.301Z,53.20
2022-12-10T15:29:36.383Z,53.20
2022-12-10T15:32:15.132Z,53.20
2022-12-10T15:34:45.339Z,53.20
2022-12-10T15:37:23.697Z,53.20
2022-12-10T15:39:55.424Z,53.20
2022-12-10T15:42:32.923Z,53.10
2022-12-10T15:45:06.602Z,53.20
2022-12-10T15:47:38.873Z,53.20
2022-12-10T15:50:07.600Z,53.20
2022-12-10T15:52:35.795Z,53.20
2022-12-10T15:55:03.791Z,53.20
2022-12-10T15:57:33.096Z,53.20
2022-12-10T16:00:04.129Z,53.20
2022-12-10T16:02:39.277Z,53.20
2022-12-10T16:05:14.841Z,53.20
2022-12-10T16:07:43.069Z,53.20
2022-12-10T16:10:13.155Z,53.20
2022-12-10T16:12:43.063Z,53.20
2022-12-10T16:15:19.465Z,53.20
2022-12-10T16:17:48.873Z,53.20
2022-12-10T16:20:23.704Z,53.20
2022-12-10T16:22:51.842Z,53.20
2022-12-10T16:25:20.034Z,53.20
2022-12-10T16:27:48.190Z,53.20
2022-12-10T16:30:20.122Z,53.20
2022-12-10T16:32:49.821Z,53.20
2022-12-10T16:35:18.239Z,53.20
2022-12-10T16:37:49.901Z,53.20
2022-12-10T16:40:19.191Z,53.20
2022-12-10T16:42:48.599Z,53.20
2022-12-10T16:45:18.848Z,53.20
2022-12-10T16:47:47.004Z,53.20
2022-12-10T16:50:18.070Z,53.20
2022-12-10T16:52:46.293Z,53.10
2022-12-10T16:55:16.882Z,53.20
2022-12-10T16:57:46.766Z,53.20
2022-12-10T17:00:16.757Z,53.20
2022-12-10T17:02:45.556Z,53.10
2022-12-10T17:05:20.863Z,53.20
2022-12-10T17:07:48.770Z,53.20
2022-12-10T17:10:16.712Z,53.20
2022-12-10T17:12:44.973Z,53.10
2022-12-10T17:15:17.499Z,53.20
2022-12-10T17:17:45.574Z,53.20
2022-12-10T17:20:19.329Z,53.20
2022-12-10T17:22:47.159Z,53.20
2022-12-10T17:25:15.066Z,53.20
2022-12-10T17:27:42.932Z,53.20
2022-12-10T17:30:14.951Z,53.20
2022-12-10T17:32:43.024Z,53.20
2022-12-10T17:35:11.692Z,53.20
2022-12-10T17:37:43.636Z,53.20
2022-12-10T17:40:15.535Z,53.20
2022-12-10T17:42:43.513Z,53.10
2022-12-10T17:45:17.690Z,53.20
2022-12-10T17:47:49.698Z,53.20
2022-12-10T17:50:29.714Z,53.20
2022-12-10T17:53:00.226Z,53.20
2022-12-10T17:55:28.744Z,53.20
2022-12-10T17:57:58.548Z,53.20
2022-12-10T18:00:29.031Z,53.10
2022-12-10T18:02:57.178Z,53.20
2022-12-10T18:05:25.124Z,53.20
2022-12-10T18:07:53.102Z,53.20
2022-12-10T18:10:24.329Z,53.20
2022-12-10T18:12:54.364Z,53.20
2022-12-10T18:15:23.418Z,53.20
2022-12-10T18:17:51.971Z,53.20
2022-12-10T18:20:25.104Z,53.20
2022-12-10T18:22:54.091Z,53.10
2022-12-10T18:25:23.603Z,53.20
2022-12-10T18:27:51.812Z,53.20
2022-12-10T18:30:21.947Z,53.20
2022-12-10T18:32:50.472Z,53.00
2022-12-10T18:35:18.635Z,53.20
2022-12-10T18:37:47.726Z,53.20
2022-12-10T18:40:18.388Z,53.20
2022-12-10T18:42:47.944Z,53.20
2022-12-10T18:45:16.141Z,53.10
2022-12-10T18:47:44.058Z,53.10
2022-12-10T18:50:20.688Z,53.20
2022-12-10T18:52:48.545Z,53.10
2022-12-10T18:55:16.861Z,53.20
2022-12-10T18:57:46.055Z,53.10
2022-12-10T19:00:19.571Z,53.20
2022-12-10T19:02:47.816Z,53.20
2022-12-10T19:05:16.555Z,53.10
2022-12-10T19:07:44.476Z,53.20
2022-12-10T19:10:16.214Z,53.20
2022-12-10T19:12:44.108Z,53.20
2022-12-10T19:15:16.161Z,53.20
2022-12-10T19:17:44.213Z,53.10
2022-12-10T19:20:15.498Z,53.10
2022-12-10T19:22:43.512Z,53.10
2022-12-10T19:25:12.334Z,53.20
2022-12-10T19:27:40.970Z,53.10
2022-12-10T19:30:16.617Z,53.10
2022-12-10T19:32:44.581Z,53.10
2022-12-10T19:35:17.931Z,53.10
2022-12-10T19:37:46.396Z,53.10
2022-12-10T19:40:20.987Z,53.10
2022-12-10T19:42:49.467Z,53.10
2022-12-10T19:45:21.140Z,53.10
2022-12-10T19:47:50.477Z,53.10
2022-12-10T19:50:20.667Z,53.00
2022-12-10T19:52:49.713Z,53.00
2022-12-10T19:55:19.183Z,53.00
2022-12-10T19:57:47.518Z,53.10
2022-12-10T20:00:20.456Z,53.00
2022-12-10T20:02:48.762Z,53.00
2022-12-10T20:05:17.665Z,53.10
2022-12-10T20:07:46.345Z,53.00
2022-12-10T20:12:39.667Z,53.00
2022-12-10T20:15:08.782Z,53.00
2022-12-10T20:17:38.189Z,53.00
2022-12-10T20:20:06.991Z,53.10
2022-12-10T20:22:35.100Z,53.00
2022-12-10T20:25:02.959Z,53.00
2022-12-10T20:27:30.797Z,53.00
2022-12-10T20:29:58.682Z,53.00
2022-12-10T20:32:26.540Z,53.00
2022-12-10T20:34:55.756Z,53.00
2022-12-10T20:37:23.683Z,53.10
2022-12-10T20:40:14.454Z,53.00
2022-12-10T20:42:39.481Z,53.10
2022-12-10T20:45:08.672Z,53.10
2022-12-10T20:47:39.812Z,53.00
2022-12-10T20:50:15.375Z,53.00
2022-12-10T20:52:43.256Z,53.10
2022-12-10T20:55:11.528Z,53.00
2022-12-10T20:57:40.226Z,53.00
2022-12-10T21:00:16.417Z,53.10
2022-12-10T21:02:44.769Z,53.00
2022-12-10T21:05:15.647Z,53.00
2022-12-10T21:07:44.778Z,53.00
2022-12-10T21:10:37.572Z,53.00
2022-12-10T21:13:07.026Z,53.00
2022-12-10T21:15:35.715Z,53.00
2022-12-10T21:18:03.738Z,53.00
2022-12-10T21:20:33.077Z,53.00
2022-12-10T21:23:00.986Z,53.00
2022-12-10T21:25:28.854Z,53.00
2022-12-10T21:27:56.696Z,53.60
2022-12-10T21:30:24.612Z,53.00
2022-12-10T21:32:52.775Z,53.00
2022-12-10T21:35:21.018Z,53.00
2022-12-10T21:37:50.406Z,53.00
2022-12-10T21:40:18.591Z,53.00
2022-12-10T21:43:04.024Z,53.00
2022-12-10T21:45:32.944Z,53.00
2022-12-10T21:48:02.434Z,53.00
2022-12-10T21:50:31.664Z,53.00
2022-12-10T21:53:01.070Z,53.00
2022-12-10T21:55:30.713Z,53.00
2022-12-10T21:57:59.302Z,53.00
